createdAt,value
2018-09-11T00:00:40.240Z,991.12
2018-09-11T00:01:40.368Z,991.13
2018-09-11T00:02:40.592Z,991.14
2018-09-11T00:03:40.723Z,991.12
2018-09-11T00:04:40.911Z,991.09
2018-09-11T00:05:41.106Z,991.10
2018-09-11T00:06:41.307Z,991.06
2018-09-11T00:07:41.509Z,991.04
2018-09-11T00:08:41.691Z,991.08
2018-09-11T00:09:41.868Z,991.04
2018-09-11T00:10:42.038Z,991.08
2018-09-11T00:11:42.235Z,991.04
2018-09-11T00:12:42.418Z,991.04
2018-09-11T00:13:42.558Z,991.02
2018-09-11T00:14:42.746Z,991.00
2018-09-11T00:15:42.945Z,991.02
2018-09-11T00:16:43.124Z,991.02
2018-09-11T00:17:43.302Z,991.03
2018-09-11T00:18:43.511Z,991.02
2018-09-11T00:19:43.731Z,991.02
2018-09-11T00:20:43.874Z,990.99
2018-09-11T00:21:44.057Z,991.01
2018-09-11T00:22:44.308Z,990.99
2018-09-11T00:23:44.486Z,990.99
2018-09-11T00:24:44.670Z,990.96
2018-09-11T00:25:44.845Z,991.02
2018-09-11T00:26:45.029Z,990.99
2018-09-11T00:27:45.204Z,991.05
2018-09-11T00:28:45.388Z,991.06
2018-09-11T00:29:45.568Z,991.08
2018-09-11T00:30:45.759Z,991.05
2018-09-11T00:31:45.953Z,991.04
2018-09-11T00:32:46.165Z,991.01
2018-09-11T00:33:46.302Z,991.01
2018-09-11T00:34:46.487Z,991.02
2018-09-11T00:35:46.668Z,991.01
2018-09-11T00:36:46.833Z,990.99
2018-09-11T00:37:47.025Z,990.99
2018-09-11T00:38:47.215Z,990.95
2018-09-11T00:39:47.403Z,991.00
2018-09-11T00:40:47.580Z,990.99
2018-09-11T00:41:47.779Z,990.97
2018-09-11T00:42:47.931Z,990.99
2018-09-11T00:43:48.149Z,991.01
2018-09-11T00:44:48.291Z,990.97
2018-09-11T00:45:48.473Z,990.98
2018-09-11T00:46:48.659Z,991.00
2018-09-11T00:47:48.848Z,991.01
2018-09-11T00:48:49.036Z,990.99
2018-09-11T00:49:49.245Z,991.01
2018-09-11T00:50:49.412Z,991.03
2018-09-11T00:51:49.616Z,991.07
2018-09-11T00:52:49.786Z,990.99
2018-09-11T00:53:49.925Z,991.03
2018-09-11T00:54:50.109Z,991.05
2018-09-11T00:55:50.292Z,991.03
2018-09-11T00:56:50.491Z,991.02
2018-09-11T00:57:50.673Z,991.02
2018-09-11T00:58:50.880Z,991.00
2018-09-11T00:59:51.038Z,991.04
2018-09-11T01:00:51.241Z,991.06
2018-09-11T01:01:51.402Z,991.06
2018-09-11T01:02:51.588Z,991.09
2018-09-11T01:03:51.759Z,991.10
2018-09-11T01:04:51.940Z,991.10
2018-09-11T01:05:52.142Z,991.09
2018-09-11T01:06:52.332Z,991.11
2018-09-11T01:07:52.500Z,991.08
2018-09-11T01:10:35.410Z,991.00
2018-09-11T01:11:35.596Z,990.99
2018-09-11T01:12:35.809Z,991.00
2018-09-11T01:13:35.990Z,991.04
2018-09-11T01:14:36.136Z,991.05
2018-09-11T01:15:36.298Z,991.06
2018-09-11T01:16:36.486Z,991.05
2018-09-11T01:17:36.661Z,991.04
2018-09-11T01:18:36.853Z,991.07
2018-09-11T01:19:37.054Z,991.07
2018-09-11T01:20:37.295Z,991.07
2018-09-11T01:21:37.435Z,991.10
2018-09-11T01:22:37.572Z,991.15
2018-09-11T01:23:37.755Z,991.17
2018-09-11T01:24:37.974Z,991.10
2018-09-11T01:25:38.125Z,991.11
2018-09-11T01:26:38.294Z,991.11
2018-09-11T01:27:38.497Z,991.11
2018-09-11T01:28:38.641Z,991.11
2018-09-11T01:29:38.861Z,991.09
2018-09-11T01:30:39.097Z,991.07
2018-09-11T01:31:39.292Z,991.13
2018-09-11T01:32:39.422Z,991.18
2018-09-11T01:33:39.607Z,991.14
2018-09-11T01:34:39.782Z,991.17
2018-09-11T01:35:39.965Z,991.17
2018-09-11T01:36:40.148Z,991.19
2018-09-11T01:37:40.332Z,991.17
2018-09-11T01:38:40.566Z,991.17
2018-09-11T01:39:40.705Z,991.19
2018-09-11T01:40:40.901Z,991.17
2018-09-11T01:41:41.124Z,991.19
2018-09-11T01:42:41.285Z,991.17
2018-09-11T01:43:41.452Z,991.18
2018-09-11T01:44:41.633Z,991.19
2018-09-11T01:45:41.818Z,991.19
2018-09-11T01:46:42.018Z,991.23
2018-09-11T01:47:42.180Z,991.21
2018-09-11T01:48:42.349Z,991.24
2018-09-11T01:49:42.541Z,991.24
2018-09-11T01:50:42.722Z,991.27
2018-09-11T01:51:42.884Z,991.28
2018-09-11T01:52:43.065Z,991.29
2018-09-11T01:53:43.244Z,991.24
2018-09-11T01:54:43.416Z,991.20
2018-09-11T01:55:43.627Z,991.23
2018-09-11T01:56:43.800Z,991.29
2018-09-11T01:57:43.976Z,991.25
2018-09-11T01:58:44.215Z,991.25
2018-09-11T01:59:44.336Z,991.19
2018-09-11T02:00:44.529Z,991.24
2018-09-11T02:01:44.702Z,991.26
2018-09-11T02:02:44.921Z,991.30
2018-09-11T02:03:45.082Z,991.34
2018-09-11T02:04:45.288Z,991.34
2018-09-11T02:05:45.473Z,991.35
2018-09-11T02:06:45.641Z,991.36
2018-09-11T02:07:45.821Z,991.38
2018-09-11T02:08:46.007Z,991.39
2018-09-11T02:09:46.177Z,991.41
2018-09-11T02:10:46.352Z,991.39
2018-09-11T02:11:46.538Z,991.41
2018-09-11T02:12:46.737Z,991.41
2018-09-11T02:13:46.915Z,991.39
2018-09-11T02:14:47.079Z,991.35
2018-09-11T02:15:47.271Z,991.46
2018-09-11T02:16:47.440Z,991.43
2018-09-11T02:17:47.618Z,991.42
2018-09-11T02:18:47.810Z,991.48
2018-09-11T02:19:47.984Z,991.44
2018-09-11T02:20:48.165Z,991.48
2018-09-11T02:21:48.351Z,991.46
2018-09-11T02:22:48.535Z,991.43
2018-09-11T02:23:48.719Z,991.40
2018-09-11T02:24:48.902Z,991.32
2018-09-11T02:25:49.079Z,991.31
2018-09-11T02:26:49.254Z,991.24
2018-09-11T02:27:49.437Z,991.24
2018-09-11T02:28:49.653Z,991.26
2018-09-11T02:29:49.799Z,991.27
2018-09-11T02:30:49.987Z,991.27
2018-09-11T02:31:50.157Z,991.22
2018-09-11T02:32:50.320Z,991.24
2018-09-11T02:33:50.508Z,991.23
2018-09-11T02:34:50.666Z,991.17
2018-09-11T02:35:50.927Z,991.19
2018-09-11T02:36:51.049Z,991.23
2018-09-11T02:37:51.202Z,991.25
2018-09-11T02:38:51.401Z,991.22
2018-09-11T02:39:51.553Z,991.19
2018-09-11T02:40:51.760Z,991.16
2018-09-11T02:41:51.918Z,991.15
2018-09-11T02:42:52.096Z,991.18
2018-09-11T02:43:52.281Z,991.14
2018-09-11T02:44:52.479Z,991.15
2018-09-11T02:45:52.628Z,991.14
2018-09-11T02:46:52.797Z,991.13
2018-09-11T02:47:52.982Z,991.16
2018-09-11T02:48:53.158Z,991.16
2018-09-11T02:49:53.343Z,991.18
2018-09-11T02:50:53.529Z,991.18
2018-09-11T02:51:53.702Z,991.21
2018-09-11T02:52:53.881Z,991.20
2018-09-11T02:53:54.092Z,991.24
2018-09-11T02:54:54.292Z,991.21
2018-09-11T02:55:54.438Z,991.22
2018-09-11T02:56:54.613Z,991.21
2018-09-11T02:57:54.793Z,991.19
2018-09-11T02:58:54.980Z,991.16
2018-09-11T02:59:55.156Z,991.20
2018-09-11T03:00:55.361Z,991.21
2018-09-11T03:01:55.548Z,991.19
2018-09-11T03:02:55.767Z,991.20
2018-09-11T03:03:55.913Z,991.14
2018-09-11T03:04:56.075Z,991.12
2018-09-11T03:05:56.245Z,991.10
2018-09-11T03:06:56.436Z,991.08
2018-09-11T03:07:56.607Z,991.09
2018-09-11T03:08:56.801Z,991.03
2018-09-11T03:09:56.991Z,991.05
2018-09-11T03:10:57.161Z,991.04
2018-09-11T03:11:57.349Z,991.04
2018-09-11T03:12:57.558Z,991.00
2018-09-11T03:13:57.751Z,990.98
2018-09-11T03:14:57.908Z,991.00
2018-09-11T03:15:58.091Z,991.01
2018-09-11T03:16:58.269Z,991.00
2018-09-11T03:17:58.483Z,991.05
2018-09-11T03:18:58.642Z,991.07
2018-09-11T03:19:58.830Z,991.09
2018-09-11T03:20:58.981Z,991.13
2018-09-11T03:21:59.168Z,991.17
2018-09-11T03:22:59.363Z,991.17
2018-09-11T03:23:59.557Z,991.21
2018-09-11T03:24:59.724Z,991.20
2018-09-11T03:25:59.890Z,991.18
2018-09-11T03:27:00.078Z,991.17
2018-09-11T03:28:00.258Z,991.13
2018-09-11T03:29:00.476Z,991.12
2018-09-11T03:30:00.654Z,991.14
2018-09-11T03:31:00.824Z,991.16
2018-09-11T03:32:01.028Z,991.11
2018-09-11T03:33:01.180Z,991.12
2018-09-11T03:34:01.357Z,991.14
2018-09-11T03:35:01.532Z,991.11
2018-09-11T03:36:01.721Z,991.11
2018-09-11T03:37:01.903Z,991.06
2018-09-11T03:38:02.093Z,991.10
2018-09-11T03:39:02.259Z,991.11
2018-09-11T03:40:02.422Z,991.10
2018-09-11T03:41:02.598Z,991.13
2018-09-11T03:42:02.833Z,991.13
2018-09-11T03:43:02.955Z,991.13
2018-09-11T03:44:03.246Z,991.15
2018-09-11T03:45:03.346Z,991.14
2018-09-11T03:46:03.561Z,991.21
2018-09-11T03:47:03.705Z,991.22
2018-09-11T03:48:03.914Z,991.17
2018-09-11T03:49:04.071Z,991.23
2018-09-11T03:50:04.308Z,991.27
2018-09-11T03:51:04.541Z,991.22
2018-09-11T03:52:04.695Z,991.24
2018-09-11T03:53:04.880Z,991.26
2018-09-11T03:54:05.075Z,991.21
2018-09-11T03:55:05.231Z,991.27
2018-09-11T03:56:05.414Z,991.25
2018-09-11T03:57:05.598Z,991.29
2018-09-11T03:58:05.789Z,991.31
2018-09-11T03:59:05.993Z,991.32
2018-09-11T04:00:06.153Z,991.32
2018-09-11T04:01:06.307Z,991.32
2018-09-11T04:02:06.493Z,991.32
2018-09-11T04:03:06.694Z,991.32
2018-09-11T04:04:06.863Z,991.32
2018-09-11T04:05:07.045Z,991.35
2018-09-11T04:06:07.225Z,991.35
2018-09-11T04:07:07.404Z,991.32
2018-09-11T04:08:07.580Z,991.35
2018-09-11T04:09:07.753Z,991.36
2018-09-11T04:10:07.953Z,991.35
2018-09-11T04:11:08.133Z,991.37
2018-09-11T04:12:08.314Z,991.39
2018-09-11T04:13:08.496Z,991.40
2018-09-11T04:14:08.675Z,991.38
2018-09-11T04:15:08.872Z,991.42
2018-09-11T04:16:09.100Z,991.38
2018-09-11T04:17:09.261Z,991.40
2018-09-11T04:18:09.452Z,991.48
2018-09-11T04:19:09.589Z,991.54
2018-09-11T04:20:09.762Z,991.56
2018-09-11T04:21:09.972Z,991.61
2018-09-11T04:22:10.149Z,991.64
2018-09-11T04:23:10.324Z,991.64
2018-09-11T04:24:10.543Z,991.65
2018-09-11T04:25:10.709Z,991.68
2018-09-11T04:26:10.881Z,991.62
2018-09-11T04:27:11.104Z,991.65
2018-09-11T04:28:11.238Z,991.61
2018-09-11T04:29:11.469Z,991.61
2018-09-11T04:30:11.658Z,991.65
2018-09-11T04:31:11.781Z,991.61
2018-09-11T04:32:11.977Z,991.60
2018-09-11T04:33:12.163Z,991.60
2018-09-11T04:34:12.341Z,991.55
2018-09-11T04:35:12.555Z,991.57
2018-09-11T04:36:12.722Z,991.57
2018-09-11T04:37:12.884Z,991.61
2018-09-11T04:38:13.018Z,991.61
2018-09-11T04:39:13.202Z,991.63
2018-09-11T04:40:13.382Z,991.62
2018-09-11T04:41:13.556Z,991.65
2018-09-11T04:42:13.740Z,991.64
2018-09-11T04:43:13.961Z,991.62
2018-09-11T04:44:14.138Z,991.66
2018-09-11T04:45:14.306Z,991.62
2018-09-11T04:46:14.599Z,991.65
2018-09-11T04:47:14.629Z,991.68
2018-09-11T04:48:14.770Z,991.68
2018-09-11T04:49:14.991Z,991.70
2018-09-11T04:50:15.259Z,991.71
2018-09-11T04:51:15.352Z,991.73
2018-09-11T04:52:15.468Z,991.68
2018-09-11T04:53:15.659Z,991.71
2018-09-11T04:54:15.866Z,991.70
2018-09-11T04:55:16.035Z,991.71
2018-09-11T04:56:16.523Z,991.73
2018-09-11T04:57:16.558Z,991.77
2018-09-11T04:58:16.891Z,991.78
2018-09-11T04:59:16.834Z,991.81
2018-09-11T05:00:17.004Z,991.84
2018-09-11T05:01:17.212Z,991.86
2018-09-11T05:02:17.359Z,991.88
2018-09-11T05:03:17.557Z,991.85
2018-09-11T05:04:17.755Z,991.84
2018-09-11T05:05:17.930Z,991.79
2018-09-11T05:06:18.107Z,991.83
2018-09-11T05:07:18.303Z,991.84
2018-09-11T05:08:18.496Z,991.84
2018-09-11T05:09:18.663Z,991.88
2018-09-11T05:10:18.848Z,991.90
2018-09-11T05:11:19.055Z,991.87
2018-09-11T05:12:19.428Z,991.88
2018-09-11T05:13:19.430Z,991.95
2018-09-11T05:14:19.617Z,992.03
2018-09-11T05:15:19.798Z,992.06
2018-09-11T05:16:19.970Z,992.08
2018-09-11T05:17:20.155Z,992.01
2018-09-11T05:18:20.347Z,991.94
2018-09-11T05:19:20.569Z,991.86
2018-09-11T05:20:20.693Z,991.77
2018-09-11T05:21:20.867Z,991.80
2018-09-11T05:22:21.053Z,991.77
2018-09-11T05:23:21.234Z,991.79
2018-09-11T05:24:21.422Z,991.81
2018-09-11T05:25:21.601Z,991.83
2018-09-11T05:26:21.807Z,991.86
2018-09-11T05:27:21.981Z,991.90
2018-09-11T05:28:22.166Z,991.86
2018-09-11T05:29:22.336Z,991.91
2018-09-11T05:30:22.528Z,991.90
2018-09-11T05:31:22.706Z,991.85
2018-09-11T05:32:22.890Z,991.85
2018-09-11T05:33:23.088Z,991.83
2018-09-11T05:34:23.247Z,991.84
2018-09-11T05:35:23.459Z,991.85
2018-09-11T05:36:23.626Z,991.82
2018-09-11T05:37:23.812Z,991.86
2018-09-11T05:38:24.028Z,991.89
2018-09-11T05:39:24.183Z,991.93
2018-09-11T05:40:24.351Z,991.96
2018-09-11T05:41:24.528Z,991.94
2018-09-11T05:42:24.719Z,991.93
2018-09-11T05:43:24.896Z,991.91
2018-09-11T05:44:25.083Z,991.99
2018-09-11T05:45:25.266Z,992.01
2018-09-11T05:46:25.460Z,992.06
2018-09-11T05:47:25.638Z,992.13
2018-09-11T05:48:25.812Z,992.07
2018-09-11T05:49:25.997Z,992.17
2018-09-11T05:50:26.184Z,992.11
2018-09-11T05:51:26.384Z,992.15
2018-09-11T05:52:26.548Z,992.14
2018-09-11T05:53:26.742Z,992.11
2018-09-11T05:54:26.897Z,992.20
2018-09-11T05:55:27.093Z,992.13
2018-09-11T05:56:27.278Z,992.17
2018-09-11T05:57:27.461Z,992.18
2018-09-11T05:58:27.733Z,992.21
2018-09-11T05:59:27.897Z,992.21
2018-09-11T06:00:28.059Z,992.25
2018-09-11T06:01:28.243Z,992.34
2018-09-11T06:02:28.422Z,992.43
2018-09-11T06:03:28.607Z,992.56
2018-09-11T06:04:28.807Z,992.58
2018-09-11T06:05:29.032Z,992.59
2018-09-11T06:06:29.147Z,992.69
2018-09-11T06:07:29.337Z,992.80
2018-09-11T06:08:29.557Z,992.76
2018-09-11T06:09:29.759Z,992.99
2018-09-11T06:10:29.956Z,992.99
2018-09-11T06:11:30.146Z,993.25
2018-09-11T06:12:30.335Z,993.47
2018-09-11T06:13:30.529Z,993.66
2018-09-11T06:14:30.714Z,993.84
2018-09-11T06:15:30.897Z,994.02
2018-09-11T06:16:31.083Z,994.31
2018-09-11T06:17:31.268Z,994.56
2018-09-11T06:18:31.457Z,994.39
2018-09-11T06:19:31.641Z,993.87
2018-09-11T06:20:31.879Z,995.44
2018-09-11T06:21:32.011Z,997.38
2018-09-11T06:22:32.218Z,997.27
2018-09-11T06:23:32.388Z,997.92
2018-09-11T06:24:32.551Z,996.33
2018-09-11T06:25:32.743Z,993.59
2018-09-11T06:26:32.930Z,993.43
2018-09-11T06:27:33.109Z,992.74
2018-09-11T06:28:33.340Z,992.41
2018-09-11T06:29:33.497Z,992.33
2018-09-11T06:30:33.663Z,992.35
2018-09-11T06:31:33.843Z,992.32
2018-09-11T06:32:34.032Z,992.23
2018-09-11T06:33:34.235Z,992.34
2018-09-11T06:34:34.400Z,992.46
2018-09-11T06:35:34.687Z,992.58
2018-09-11T06:36:34.789Z,992.55
2018-09-11T06:37:34.946Z,992.56
2018-09-11T06:38:35.136Z,992.60
2018-09-11T06:39:35.310Z,992.50
2018-09-11T06:40:35.495Z,992.47
2018-09-11T06:41:35.693Z,992.35
2018-09-11T06:42:35.905Z,992.26
2018-09-11T06:43:36.052Z,992.26
2018-09-11T06:44:36.275Z,992.28
2018-09-11T06:45:36.426Z,992.25
2018-09-11T06:46:36.624Z,992.33
2018-09-11T06:47:36.817Z,992.28
2018-09-11T06:48:36.981Z,992.31
2018-09-11T06:49:37.171Z,992.35
2018-09-11T06:50:37.358Z,992.41
2018-09-11T06:51:37.550Z,992.26
2018-09-11T06:52:37.734Z,992.27
2018-09-11T06:53:37.921Z,992.26
2018-09-11T06:54:38.132Z,992.24
2018-09-11T06:55:38.369Z,992.26
2018-09-11T06:56:38.472Z,992.20
2018-09-11T06:57:38.676Z,992.19
2018-09-11T06:58:38.851Z,992.27
2018-09-11T06:59:39.068Z,992.26
2018-09-11T07:00:39.360Z,992.21
2018-09-11T07:01:39.502Z,992.16
2018-09-11T07:02:39.693Z,992.17
2018-09-11T07:03:39.874Z,992.16
2018-09-11T07:04:40.055Z,992.20
2018-09-11T07:05:40.244Z,992.22
2018-09-11T07:06:40.428Z,992.29
2018-09-11T07:07:40.629Z,992.28
2018-09-11T07:08:40.816Z,992.26
2018-09-11T07:09:41.052Z,992.28
2018-09-11T07:10:41.239Z,992.36
2018-09-11T07:11:41.366Z,992.36
2018-09-11T07:12:41.563Z,992.33
2018-09-11T07:13:41.757Z,992.33
2018-09-11T07:14:41.956Z,992.39
2018-09-11T07:15:42.121Z,992.32
2018-09-11T07:16:42.315Z,992.29
2018-09-11T07:17:42.521Z,992.17
2018-09-11T07:18:42.701Z,992.10
2018-09-11T07:19:42.965Z,992.08
2018-09-11T07:20:43.090Z,992.04
2018-09-11T07:21:43.246Z,992.07
2018-09-11T07:22:43.427Z,991.99
2018-09-11T07:23:43.626Z,992.03
2018-09-11T07:24:43.801Z,991.99
2018-09-11T07:25:43.998Z,992.08
2018-09-11T07:26:44.190Z,992.11
2018-09-11T07:27:44.378Z,992.10
2018-09-11T07:28:44.576Z,992.13
2018-09-11T07:29:44.761Z,992.19
2018-09-11T07:30:45.092Z,992.21
2018-09-11T07:31:45.134Z,992.20
2018-09-11T07:32:45.320Z,992.21
2018-09-11T07:33:45.504Z,992.06
2018-09-11T07:34:45.693Z,992.08
2018-09-11T07:35:45.890Z,992.06
2018-09-11T07:36:46.062Z,992.04
2018-09-11T07:37:46.273Z,992.03
2018-09-11T07:38:46.428Z,992.01
2018-09-11T07:39:46.629Z,992.09
2018-09-11T07:40:46.803Z,992.07
2018-09-11T07:41:47.015Z,992.04
2018-09-11T07:42:47.180Z,992.04
2018-09-11T07:43:47.461Z,992.01
2018-09-11T07:44:47.550Z,991.98
2018-09-11T07:45:47.737Z,992.00
2018-09-11T07:46:47.951Z,992.13
2018-09-11T07:47:48.130Z,992.08
2018-09-11T07:48:48.286Z,992.11
2018-09-11T07:49:48.466Z,992.17
2018-09-11T07:50:48.672Z,992.13
2018-09-11T07:51:48.853Z,992.08
2018-09-11T07:52:49.059Z,992.10
2018-09-11T07:53:49.225Z,992.11
2018-09-11T07:54:49.406Z,992.10
2018-09-11T07:55:49.587Z,992.09
2018-09-11T07:56:50.389Z,992.13
2018-09-11T07:57:50.029Z,992.10
2018-09-11T07:58:50.265Z,992.10
2018-09-11T07:59:50.417Z,992.13
2018-09-11T08:00:50.615Z,992.11
2018-09-11T08:01:50.784Z,992.07
2018-09-11T08:02:50.976Z,992.07
2018-09-11T08:03:51.162Z,992.04
2018-09-11T08:04:51.360Z,992.10
2018-09-11T08:05:51.546Z,992.02
2018-09-11T08:06:51.890Z,992.05
2018-09-11T08:09:36.167Z,992.05
2018-09-11T08:10:34.833Z,992.00
2018-09-11T08:11:35.022Z,992.01
2018-09-11T08:12:35.247Z,992.05
2018-09-11T08:13:35.442Z,991.97
2018-09-11T08:14:35.605Z,991.99
2018-09-11T08:15:35.794Z,991.94
2018-09-11T08:16:35.984Z,991.93
2018-09-11T08:17:36.178Z,991.92
2018-09-11T08:18:36.388Z,991.92
2018-09-11T08:19:36.623Z,991.96
2018-09-11T08:20:36.748Z,991.92
2018-09-11T08:21:36.952Z,991.89
2018-09-11T08:22:37.117Z,991.90
2018-09-11T08:23:37.295Z,991.89
2018-09-11T08:24:37.501Z,991.87
2018-09-11T08:25:37.694Z,991.83
2018-09-11T08:26:37.884Z,991.85
2018-09-11T08:27:38.086Z,991.79
2018-09-11T08:28:38.258Z,991.82
2018-09-11T08:29:38.453Z,991.86
2018-09-11T08:30:38.630Z,991.74
2018-09-11T08:31:38.819Z,991.83
2018-09-11T08:32:39.005Z,991.82
2018-09-11T08:33:39.188Z,991.85
2018-09-11T08:34:39.429Z,991.81
2018-09-11T08:35:39.569Z,991.83
2018-09-11T08:36:39.844Z,991.82
2018-09-11T08:37:39.963Z,991.88
2018-09-11T08:38:40.135Z,991.91
2018-09-11T08:39:40.321Z,991.92
2018-09-11T08:40:40.559Z,991.90
2018-09-11T08:41:40.705Z,991.85
2018-09-11T08:42:40.899Z,991.91
2018-09-11T08:43:41.222Z,991.82
2018-09-11T08:44:41.317Z,991.83
2018-09-11T08:45:41.496Z,991.82
2018-09-11T08:46:41.746Z,991.81
2018-09-11T08:47:41.893Z,991.83
2018-09-11T08:48:42.094Z,991.81
2018-09-11T08:49:42.310Z,991.82
2018-09-11T08:50:43.123Z,991.82
2018-09-11T08:51:42.653Z,991.76
2018-09-11T08:52:42.811Z,991.80
2018-09-11T08:53:43.033Z,991.87
2018-09-11T08:54:43.162Z,991.87
2018-09-11T08:55:43.349Z,991.78
2018-09-11T08:56:43.545Z,991.83
2018-09-11T08:57:43.745Z,991.78
2018-09-11T08:58:43.977Z,991.81
2018-09-11T08:59:44.116Z,991.82
2018-09-11T09:00:44.290Z,991.84
2018-09-11T09:01:44.473Z,991.78
2018-09-11T09:02:44.679Z,991.77
2018-09-11T09:03:44.866Z,991.77
2018-09-11T09:04:45.076Z,991.84
2018-09-11T09:05:45.267Z,991.83
2018-09-11T09:06:45.456Z,991.81
2018-09-11T09:07:45.644Z,991.85
2018-09-11T09:08:45.835Z,991.85
2018-09-11T09:09:46.026Z,991.83
2018-09-11T09:10:46.218Z,991.90
2018-09-11T09:11:46.403Z,991.99
2018-09-11T09:12:46.598Z,991.94
2018-09-11T09:13:46.786Z,991.91
2018-09-11T09:14:47.025Z,991.94
2018-09-11T09:15:47.153Z,991.96
2018-09-11T09:16:47.333Z,991.90
2018-09-11T09:17:47.515Z,991.88
2018-09-11T09:18:47.696Z,991.90
2018-09-11T09:19:47.878Z,991.91
2018-09-11T09:20:48.111Z,991.83
2018-09-11T09:21:48.276Z,991.73
2018-09-11T09:22:48.460Z,991.78
2018-09-11T09:23:49.596Z,991.78
2018-09-11T09:24:48.786Z,991.81
2018-09-11T09:25:48.966Z,991.84
2018-09-11T09:26:49.155Z,991.78
2018-09-11T09:27:49.346Z,991.76
2018-09-11T09:28:49.689Z,991.78
2018-09-11T09:29:49.797Z,991.80
2018-09-11T09:30:49.969Z,991.80
2018-09-11T09:31:50.166Z,991.83
2018-09-11T09:32:50.405Z,991.80
2018-09-11T09:33:50.544Z,991.82
2018-09-11T09:34:50.764Z,991.85
2018-09-11T09:35:50.910Z,991.82
2018-09-11T09:36:51.163Z,991.84
2018-09-11T09:37:51.292Z,991.87
2018-09-11T09:38:51.486Z,991.92
2018-09-11T09:39:51.687Z,991.86
2018-09-11T09:40:51.875Z,991.89
2018-09-11T09:41:52.089Z,991.89
2018-09-11T09:42:52.545Z,991.80
2018-09-11T09:43:52.430Z,991.84
2018-09-11T09:44:52.614Z,991.83
2018-09-11T09:45:52.841Z,991.85
2018-09-11T09:46:53.026Z,991.87
2018-09-11T09:47:53.214Z,991.88
2018-09-11T09:48:53.426Z,991.78
2018-09-11T09:49:53.635Z,991.84
2018-09-11T09:50:53.876Z,991.79
2018-09-11T09:51:54.003Z,991.82
2018-09-11T09:52:54.218Z,991.77
2018-09-11T09:53:54.426Z,991.79
2018-09-11T09:54:54.644Z,991.85
2018-09-11T09:55:54.791Z,991.84
2018-09-11T09:56:55.003Z,991.90
2018-09-11T09:57:55.194Z,991.90
2018-09-11T09:58:55.453Z,991.85
2018-09-11T09:59:55.583Z,991.89
2018-09-11T10:00:55.782Z,991.90
2018-09-11T10:01:55.986Z,991.90
2018-09-11T10:02:56.151Z,991.90
2018-09-11T10:03:56.343Z,991.87
2018-09-11T10:04:56.604Z,991.92
2018-09-11T10:05:56.764Z,991.84
2018-09-11T10:06:56.977Z,991.86
2018-09-11T10:07:57.136Z,991.84
2018-09-11T10:08:57.355Z,991.83
2018-09-11T10:09:57.502Z,991.80
2018-09-11T10:10:57.692Z,991.86
2018-09-11T10:11:57.880Z,991.83
2018-09-11T10:12:58.070Z,991.76
2018-09-11T10:13:58.277Z,991.76
2018-09-11T10:14:58.464Z,991.77
2018-09-11T10:15:58.683Z,991.79
2018-09-11T10:16:58.855Z,991.75
2018-09-11T10:17:59.015Z,991.74
2018-09-11T10:18:59.209Z,991.74
2018-09-11T10:19:59.422Z,991.74
2018-09-11T10:20:59.610Z,991.79
2018-09-11T10:21:59.784Z,991.69
2018-09-11T10:23:00.013Z,991.67
2018-09-11T10:24:00.168Z,991.73
2018-09-11T10:25:00.374Z,991.77
2018-09-11T10:26:00.589Z,991.73
2018-09-11T10:27:00.791Z,991.69
2018-09-11T10:28:00.934Z,991.72
2018-09-11T10:29:01.121Z,991.68
2018-09-11T10:30:01.309Z,991.71
2018-09-11T10:31:01.491Z,991.76
2018-09-11T10:32:01.695Z,991.68
2018-09-11T10:33:01.940Z,991.66
2018-09-11T10:34:02.093Z,991.63
2018-09-11T10:35:02.252Z,991.63
2018-09-11T10:36:02.441Z,991.55
2018-09-11T10:37:02.630Z,991.58
2018-09-11T10:38:02.818Z,991.50
2018-09-11T10:39:03.057Z,991.49
2018-09-11T10:40:03.192Z,991.51
2018-09-11T10:41:03.380Z,991.49
2018-09-11T10:42:03.566Z,991.50
2018-09-11T10:43:03.775Z,991.52
2018-09-11T10:44:03.925Z,991.50
2018-09-11T10:45:04.154Z,991.55
2018-09-11T10:46:04.289Z,991.50
2018-09-11T10:47:04.540Z,991.51
2018-09-11T10:48:04.729Z,991.54
2018-09-11T10:49:04.913Z,991.43
2018-09-11T10:50:05.105Z,991.45
2018-09-11T10:51:05.292Z,991.48
2018-09-11T10:52:05.485Z,991.44
2018-09-11T10:53:05.724Z,991.45
2018-09-11T10:54:05.868Z,991.40
2018-09-11T10:55:06.059Z,991.36
2018-09-11T10:56:06.254Z,991.34
2018-09-11T10:57:06.432Z,991.33
2018-09-11T10:58:06.621Z,991.38
2018-09-11T10:59:06.809Z,991.33
2018-09-11T11:00:07.000Z,991.32
2018-09-11T11:01:07.188Z,991.37
2018-09-11T11:02:07.386Z,991.30
2018-09-11T11:03:07.571Z,991.29
2018-09-11T11:04:07.781Z,991.30
2018-09-11T11:05:07.962Z,991.32
2018-09-11T11:06:08.175Z,991.38
2018-09-11T11:07:08.372Z,991.36
2018-09-11T11:08:08.636Z,991.39
2018-09-11T11:09:08.742Z,991.37
2018-09-11T11:10:08.939Z,991.31
2018-09-11T11:11:09.127Z,991.29
2018-09-11T11:12:09.400Z,991.30
2018-09-11T11:13:09.498Z,991.31
2018-09-11T11:14:09.854Z,991.42
2018-09-11T11:15:09.831Z,991.32
2018-09-11T11:16:10.024Z,991.35
2018-09-11T11:17:10.269Z,991.36
2018-09-11T11:18:10.403Z,991.22
2018-09-11T11:19:10.587Z,991.24
2018-09-11T11:20:10.826Z,991.23
2018-09-11T11:21:10.960Z,991.23
2018-09-11T11:22:11.156Z,991.15
2018-09-11T11:23:11.360Z,991.13
2018-09-11T11:24:11.516Z,991.15
2018-09-11T11:25:11.713Z,991.15
2018-09-11T11:26:11.901Z,991.14
2018-09-11T11:27:12.130Z,991.14
2018-09-11T11:28:12.281Z,991.14
2018-09-11T11:29:12.527Z,991.14
2018-09-11T11:30:12.661Z,991.09
2018-09-11T11:31:12.851Z,991.14
2018-09-11T11:32:13.062Z,991.15
2018-09-11T11:33:13.233Z,991.14
2018-09-11T11:34:13.431Z,991.12
2018-09-11T11:35:13.621Z,991.07
2018-09-11T11:36:13.923Z,991.11
2018-09-11T11:37:14.128Z,991.10
2018-09-11T11:38:14.202Z,991.14
2018-09-11T11:39:14.424Z,991.13
2018-09-11T11:40:14.587Z,991.16
2018-09-11T11:41:14.780Z,991.15
2018-09-11T11:42:14.988Z,991.11
2018-09-11T11:43:15.181Z,991.03
2018-09-11T11:44:15.337Z,991.07
2018-09-11T11:45:15.526Z,991.05
2018-09-11T11:46:15.724Z,991.06
2018-09-11T11:47:15.945Z,990.99
2018-09-11T11:48:16.214Z,991.01
2018-09-11T11:49:16.364Z,991.01
2018-09-11T11:50:16.520Z,990.96
2018-09-11T11:51:16.698Z,990.99
2018-09-11T11:52:16.892Z,990.98
2018-09-11T11:53:17.100Z,990.98
2018-09-11T11:54:17.264Z,990.99
2018-09-11T11:55:17.439Z,991.06
2018-09-11T11:56:17.631Z,991.01
2018-09-11T11:57:17.823Z,991.00
2018-09-11T11:58:18.010Z,991.02
2018-09-11T11:59:18.210Z,991.07
2018-09-11T12:00:18.422Z,990.99
2018-09-11T12:01:18.622Z,991.11
2018-09-11T12:02:18.787Z,991.05
2018-09-11T12:03:18.963Z,991.08
2018-09-11T12:04:19.150Z,991.11
2018-09-11T12:05:19.330Z,991.08
2018-09-11T12:06:19.566Z,991.09
2018-09-11T12:07:19.755Z,991.05
2018-09-11T12:08:19.944Z,991.05
2018-09-11T12:09:20.655Z,991.00
2018-09-11T12:10:20.277Z,991.01
2018-09-11T12:11:20.490Z,991.03
2018-09-11T12:12:20.826Z,991.01
2018-09-11T12:13:20.890Z,991.03
2018-09-11T12:14:21.074Z,991.05
2018-09-11T12:15:21.288Z,991.06
2018-09-11T12:16:21.503Z,991.00
2018-09-11T12:17:21.655Z,991.01
2018-09-11T12:18:21.879Z,990.98
2018-09-11T12:19:22.125Z,990.92
2018-09-11T12:20:22.275Z,990.91
2018-09-11T12:21:22.496Z,990.98
2018-09-11T12:22:22.832Z,990.93
2018-09-11T12:23:22.915Z,990.90
2018-09-11T12:24:23.112Z,990.89
2018-09-11T12:25:23.317Z,990.88
2018-09-11T12:26:23.569Z,990.84
2018-09-11T12:27:23.822Z,990.82
2018-09-11T12:28:23.898Z,990.84
2018-09-11T12:29:24.095Z,990.86
2018-09-11T12:30:24.272Z,990.82
2018-09-11T12:31:24.481Z,990.86
2018-09-11T12:32:24.669Z,990.86
2018-09-11T12:33:24.862Z,990.84
2018-09-11T12:34:25.065Z,990.86